Data for 07/21/2005

Time Sea-Level Adjusted Pressure Absolute Pressure Temperature Relative Humidity Dew Point   
(mb) (inHg) (mb) (inHg) (C) (F) (%) (C) (F)
00:05 1020 30.12 849 25.07 19.7 67.5 34 3.6 38.4
00:10 1020 30.12 849 25.07 19.6 67.3 36 4.2 39.5
00:15 1020 30.12 850 25.1 19.2 66.6 41 5.7 42.3
00:20 1020 30.12 850 25.1 18.7 65.7 44 6.4 43.4
00:25 1021 30.15 850 25.1 18.6 65.5 42 5.5 41.9
00:30 1021 30.15 850 25.1 19.1 66.3 39 4.9 40.8
00:35 1021 30.15 850 25.1 19.6 67.3 35 3.8 38.8
00:40 1021 30.15 850 25.1 20.1 68.2 32 3.1 37.7
00:45 1021 30.15 850 25.1 20.5 68.8 31 3.1 37.6
00:50 1021 30.15 850 25.1 20.4 68.7 33 3.7 38.7
00:55 1021 30.15 850 25.1 20.3 68.5 33 3.5 38.3
01:00 1021 30.15 850 25.1 20.2 68.4 37 5.4 41.7
01:05 1021 30.15 850 25.1 19.9 67.9 35 4.2 39.6
01:10 1021 30.15 850 25.1 19.6 67.4 35 4.1 39.3
01:15 1021 30.15 850 25.1 19.5 67.1 38 5.1 41.1
01:20 1021 30.15 850 25.1 19.7 67.4 35 4 39.2
01:25 1021 30.15 850 25.1 19.5 67.1 36 4 39.3
01:30 1021 30.15 850 25.1 19.2 66.6 37 4.4 40
01:35 1021 30.15 850 25.1 18.7 65.6 44 6.3 43.3
01:40 1021 30.15 850 25.1 18.1 64.6 43 5.4 41.7
01:45 1021 30.15 850 25.1 17.8 64 41 4.4 39.9
01:50 1021 30.15 850 25.1 18 64.3 41 4.7 40.5
01:55 1021 30.15 851 25.13 17.7 63.9 50 7.4 45.2
02:00 1021 30.15 851 25.13 17.6 63.7 41 4.4 39.8
02:05 1021 30.15 851 25.13 17.3 63.1 44 5 41
02:10 1021 30.15 851 25.13 16.8 62.2 45 4.8 40.6
02:15 1021 30.15 851 25.13 16.8 62.2 47 5.6 42.1
02:20 1022 30.18 851 25.13 16.8 62.3 44 4.8 40.6
02:25 1022 30.18 851 25.13 16.6 61.9 43 4.1 39.4
02:30 1022 30.18 851 25.13 16.8 62.2 42 3.9 39.1
02:35 1022 30.18 851 25.13 16.8 62.3 42 4 39.2
02:40 1022 30.18 851 25.13 17 62.5 40 3.5 38.2
02:45 1022 30.18 851 25.13 16.8 62.3 40 3.4 38.1
02:50 1022 30.18 851 25.13 16.8 62.3 40 3.3 38
02:55 1022 30.18 851 25.13 16.8 62.3 41 3.5 38.3
03:00 1022 30.18 851 25.13 16.9 62.4 40 3.5 38.2
03:05 1022 30.18 851 25.13 16.7 62.1 40 3.3 37.9
03:10 1022 30.18 851 25.13 16.4 61.5 41 3.4 38.1
03:15 1022 30.18 851 25.13 16.3 61.4 39 2.4 36.4
03:20 1022 30.18 851 25.13 16.7 62 41 3.5 38.3
03:25 1022 30.18 851 25.13 16.8 62.3 36 1.9 35.4
03:30 1022 30.18 851 25.13 17 62.5 37 2.2 35.9
03:35 1022 30.18 851 25.13 17 62.5 36 2 35.6
03:40 1022 30.18 851 25.13 16.6 61.9 37 2 35.6
03:45 1022 30.18 851 25.13 16.5 61.8 36 1.7 35
03:50 1022 30.18 852 25.16 16.6 61.8 36 1.6 34.8
03:55 1022 30.18 852 25.16 16.7 62.1 34 1 33.7
04:00 1022 30.18 852 25.16 16.9 62.5 34 1.2 34.2
04:05 1022 30.18 852 25.16 16.7 62.1 40 3.3 38
04:10 1022 30.18 852 25.16 16.3 61.4 37 1.7 35.1
04:15 1022 30.18 852 25.16 16.2 61.2 38 1.9 35.5
04:20 1022 30.18 852 25.16 16.3 61.3 35 0.8 33.4
04:25 1023 30.21 852 25.16 16.7 62 34 1 33.9
04:30 1023 30.21 852 25.16 16.6 61.9 33 0.4 32.8
04:35 1023 30.21 852 25.16 16.7 62.1 33 0.6 33.1
04:40 1023 30.21 852 25.16 16.8 62.2 33 0.6 33.1
04:45 1023 30.21 852 25.16 16.8 62.3 33 0.6 33.1
04:50 1023 30.21 852 25.16 16.6 61.9 33 0.4 32.7
04:55 1023 30.21 852 25.16 16.4 61.5 34 0.8 33.5
05:00 1023 30.21 852 25.16 16.2 61.2 34 0.5 32.8
05:05 1023 30.21 852 25.16 16.2 61.1 34 0.3 32.5
05:10 1023 30.21 852 25.16 16.1 61 34 0.5 32.9
05:15 1023 30.21 852 25.16 16.1 61 33 -0.1 31.7
05:20 1023 30.21 852 25.16 16.6 62 31 -0.3 31.4
05:25 1023 30.21 852 25.16 16.8 62.2 32 -0.1 31.9
05:30 1023 30.21 852 25.16 16.7 62 31 -0.2 31.6
05:35 1023 30.21 852 25.16 16.6 61.9 31 -0.3 31.5
05:40 1023 30.21 852 25.16 16.5 61.6 32 -0.3 31.4
05:45 1023 30.21 852 25.16 16.5 61.7 32 -0.3 31.5
05:50 1023 30.21 852 25.16 16.1 61 33 -0.1 31.8
05:55 1023 30.21 852 25.16 15.9 60.6 33 -0.2 31.7
06:00 1023 30.21 853 25.19 15.9 60.6 33 -0.4 31.4
06:05 1023 30.21 853 25.19 16.2 61.2 31 -0.7 30.7
06:10 1024 30.24 853 25.19 16.5 61.6 31 -0.6 30.8
06:15 1024 30.24 853 25.19 16.4 61.6 31 -0.6 31
06:20 1024 30.24 853 25.19 16.2 61.1 33 0.1 32.3
06:25 1023 30.21 853 25.19 16.4 61.5 31 -0.6 30.9
06:30 1024 30.24 853 25.19 16.1 61.1 34 0.5 32.8
06:35 1024 30.24 853 25.19 15.5 60 33 -0.4 31.3
06:40 1024 30.24 853 25.19 15.7 60.2 35 0.4 32.7
06:45 1024 30.24 853 25.19 15.7 60.3 33 -0.2 31.6
06:50 1024 30.24 853 25.19 15.7 60.2 32 -1 30.2
06:55 1024 30.24 853 25.19 16 60.9 32 -0.5 31
07:00 1024 30.24 853 25.19 16.3 61.3 33 0.1 32.2
07:05 1024 30.24 853 25.19 16.1 61 33 -0.3 31.5
07:10 1024 30.24 853 25.19 16.3 61.3 33 0 32.1
07:15 1024 30.24 853 25.19 16.6 61.9 32 -0.1 31.7
07:20 1024 30.24 853 25.19 16.8 62.3 34 0.8 33.5
07:25 1024 30.24 853 25.19 16.8 62.2 35 1.3 34.3
07:30 1024 30.24 853 25.19 16.9 62.3 37 2.2 36
07:35 1024 30.24 853 25.19 17.1 62.7 34 1.1 33.9
07:40 1024 30.24 853 25.19 17.2 62.9 35 1.8 35.2
07:45 1024 30.24 853 25.19 17.1 62.7 35 1.6 34.9
07:50 1024 30.24 853 25.19 17.3 63.1 32 0.7 33.3
07:55 1024 30.24 853 25.19 17.8 64 34 1.6 35
08:00 1024 30.24 853 25.19 17.9 64.3 33 1.6 35
08:05 1024 30.24 853 25.19 18.2 64.8 34 2.3 36.1
08:10 1024 30.24 853 25.19 18.9 66 33 2.4 36.2
08:15 1024 30.24 853 25.19 19.2 66.6 31 1.8 35.2
08:20 1024 30.24 853 25.19 19.6 67.3 31 2.1 35.7
08:25 1024 30.24 853 25.19 19.7 67.4 31 2.2 36
08:30 1024 30.24 853 25.19 20 68 30 2.1 35.7
08:35 1024 30.24 853 25.19 20.3 68.6 31 2.8 37.1
08:40 1024 30.24 853 25.19 20.9 69.7 28 2.1 35.9
08:45 1024 30.24 853 25.19 21.4 70.6 27 1.7 35
08:50 1024 30.24 853 25.19 22.2 71.9 26 1.9 35.4
08:55 1024 30.24 853 25.19 23 73.4 26 2.7 36.9
09:00 1024 30.24 854 25.22 23.3 74 25 2.4 36.3
09:05 1024 30.24 854 25.22 23.9 74.9 25 2.7 36.8
09:10 1024 30.24 853 25.19 24.2 75.6 24 2.8 37
09:15 1024 30.24 853 25.19 24.5 76 22 1.6 34.9
09:20 1024 30.24 853 25.19 25.1 77.2 20 0.9 33.7
09:25 1024 30.24 853 25.19 25.2 77.4 21 1.3 34.4
09:30 1024 30.24 853 25.19 25.9 78.7 21 2 35.6
09:35 1024 30.24 853 25.19 26 78.8 19 0.9 33.7
09:40 1024 30.24 853 25.19 25.7 78.3 18 -0.1 31.9
09:45 1024 30.24 853 25.19 26 78.8 19 0.5 32.9
09:50 1024 30.24 853 25.19 25.6 78 18 -0.5 31.1
09:55 1024 30.24 853 25.19 25.9 78.6 18 -0.2 31.7
10:00 1024 30.24 853 25.19 26 78.7 18 0.3 32.5
10:05 1024 30.24 853 25.19 25.6 78 17 -1 30.2
10:10 1024 30.24 853 25.19 25.6 78.1 19 0.5 32.8
10:15 1024 30.24 853 25.19 25.7 78.2 20 1.5 34.8
10:20 1024 30.24 853 25.19 26.4 79.5 20 1.7 35.1
10:25 1024 30.24 853 25.19 26.7 80 18 0.8 33.4
10:30 1024 30.24 853 25.19 27.2 81 19 1.7 35
10:35 1024 30.24 853 25.19 27.4 81.4 19 2.3 36.1
10:40 1024 30.24 853 25.19 27.8 82 18 1.7 35
10:45 1024 30.24 853 25.19 27.8 82.1 16 -0.1 31.7
10:50 1024 30.24 853 25.19 27.6 81.7 17 0.9 33.6
10:55 1024 30.24 853 25.19 27.9 82.3 16 -0.3 31.5
11:00 1024 30.24 853 25.19 28.2 82.8 16 0.2 32.3
11:05 1024 30.24 853 25.19 28.5 83.4 16 0.9 33.6
11:10 1024 30.24 853 25.19 28.7 83.6 16 0.7 33.3
11:15 1024 30.24 853 25.19 28.2 82.7 16 0 32
11:20 1024 30.24 853 25.19 27.9 82.2 16 -0.1 31.9
11:25 1024 30.24 853 25.19 28 82.4 16 0.2 32.4
11:30 1024 30.24 853 25.19 28.6 83.4 16 0.6 33
11:35 1024 30.24 853 25.19 28.8 83.8 18 2.4 36.4
11:40 1024 30.24 853 25.19 29 84.3 16 0.7 33.3
11:45 1024 30.24 853 25.19 28.3 82.9 16 0.8 33.5
11:50 1024 30.24 853 25.19 28.3 82.9 16 0.2 32.4
11:55 1024 30.24 853 25.19 28.9 84.1 16 1 33.7
12:00 1024 30.24 853 25.19 28.9 83.9 16 0.9 33.6
12:05 1024 30.24 853 25.19 29.2 84.5 16 1 33.8
12:10 1024 30.24 853 25.19 29.4 85 15 0.4 32.7
12:15 1024 30.24 853 25.19 29.8 85.7 15 1 33.8
12:20 1024 30.24 853 25.19 30.2 86.3 14 0.4 32.7
12:25 1024 30.24 853 25.19 29.4 84.9 15 0.3 32.5
12:30 1024 30.24 853 25.19 30.1 86.1 14 0.4 32.8
12:35 1024 30.24 853 25.19 30.7 87.2 13 -0.1 31.8
12:40 1024 30.24 853 25.19 30.8 87.4 13 -0.1 31.8
12:45 1024 30.24 853 25.19 30.7 87.2 12 -1.1 30
12:50 1024 30.24 853 25.19 30.5 86.9 13 -1 30.2
12:55 1024 30.24 853 25.19 30.8 87.5 11 -2.3 27.9
13:00 1024 30.24 853 25.19 30.9 87.5 12 -1.7 29
13:05 1024 30.24 853 25.19 32.3 90.1 12 -0.9 30.4
13:10 1024 30.24 853 25.19 32.4 90.3 11 -1.4 29.4
13:15 1024 30.24 853 25.19 31.7 89.1 10 -3.7 25.4
13:20 1024 30.24 853 25.19 31 87.7 10 -4.2 24.4
13:25 1024 30.24 853 25.19 31.3 88.4 9 -4.6 23.8
13:30 1024 30.24 853 25.19 31.1 88 10 -3.5 25.7
13:35 1024 30.24 853 25.19 31.2 88.1 11 -2.9 26.7
13:40 1024 30.24 853 25.19 30.5 86.9 10 -3.9 24.9
13:45 1023 30.21 853 25.19 30.7 87.2 11 -3.4 25.9
13:50 1023 30.21 853 25.19 31.3 88.4 11 -2.9 26.8
13:55 1023 30.21 853 25.19 31.4 88.6 11 -1.8 28.8
14:00 1023 30.21 853 25.19 30.8 87.4 11 -2.2 28
14:05 1023 30.21 852 25.16 30.4 86.7 11 -3 26.7
14:10 1023 30.21 852 25.16 30.9 87.6 10 -3.4 25.8
14:15 1023 30.21 852 25.16 31.4 88.6 10 -3.2 26.2
14:20 1023 30.21 852 25.16 31.5 88.7 11 -2.6 27.2
14:25 1023 30.21 852 25.16 30.9 87.5 11 -2.8 26.9
14:30 1023 30.21 852 25.16 31.4 88.6 11 -2.3 27.9
14:35 1023 30.21 852 25.16 31.8 89.2 10 -3 26.7
14:40 1023 30.21 852 25.16 31.3 88.3 10 -3 26.6
14:45 1023 30.21 852 25.16 31 87.8 10 -3.6 25.6
14:50 1023 30.21 852 25.16 31.1 88 10 -3.4 25.9
14:55 1023 30.21 852 25.16 31.2 88.2 10 -4 24.7
15:00 1023 30.21 852 25.16 31.2 88.1 10 -3.6 25.5
15:05 1023 30.21 852 25.16 31.1 87.9 10 -3.2 26.3
15:10 1023 30.21 852 25.16 31.4 88.5 11 -2.4 27.6
15:15 1023 30.21 852 25.16 32 89.6 10 -3 26.6
15:20 1023 30.21 852 25.16 31.8 89.3 11 -2.5 27.5
15:25 1023 30.21 852 25.16 31.6 88.8 11 -2.2 28
15:30 1023 30.21 852 25.16 31.4 88.6 11 -2.6 27.2
15:35 1023 30.21 852 25.16 32 89.6 11 -1.8 28.7
15:40 1023 30.21 852 25.16 31.4 88.4 11 -2.4 27.7
15:45 1023 30.21 852 25.16 31.1 88.1 11 -2.3 27.8
15:50 1023 30.21 852 25.16 31.9 89.4 10 -2.9 26.9
15:55 1022 30.18 852 25.16 33 91.3 10 -1.7 29
16:00 1022 30.18 852 25.16 32.2 89.9 11 -2.3 27.9
16:05 1022 30.18 852 25.16 31.2 88.1 11 -2.2 28
16:10 1022 30.18 852 25.16 32.1 89.8 11 -1.4 29.4
16:15 1022 30.18 851 25.13 33.1 91.7 11 -1.4 29.4
16:20 1022 30.18 851 25.13 32.9 91.2 11 -1.3 29.6
16:25 1022 30.18 851 25.13 31.7 89 11 -1.8 28.7
16:30 1022 30.18 851 25.13 32.5 90.6 13 0.4 32.8
16:35 1022 30.18 851 25.13 33.4 92.1 10 -1.4 29.5
16:40 1022 30.18 851 25.13 33.3 91.9 10 -2.1 28.3
16:45 1022 30.18 851 25.13 32 89.6 12 -1.1 30
16:50 1022 30.18 851 25.13 31.5 88.6 12 -1.5 29.2
16:55 1022 30.18 851 25.13 31.3 88.4 12 -1.5 29.4
17:00 1022 30.18 851 25.13 31.4 88.4 12 -1.1 30.1
17:05 1022 30.18 851 25.13 31.6 88.9 11 -2.3 27.9
17:10 1022 30.18 851 25.13 31.8 89.2 11 -1.8 28.8
17:15 1022 30.18 851 25.13 31.9 89.3 11 -1.8 28.7
17:20 1022 30.18 851 25.13 31.6 89 11 -1.5 29.3
17:25 1022 30.18 851 25.13 32.6 90.7 11 -1.9 28.6
17:30 1022 30.18 851 25.13 33 91.4 11 -0.5 31.1
17:35 1022 30.18 851 25.13 32.9 91.2 10 -1.8 28.8
17:40 1022 30.18 851 25.13 32.2 89.9 12 -0.8 30.6
17:45 1022 30.18 851 25.13 32.1 89.7 12 -0.6 30.9
17:50 1022 30.18 851 25.13 32.2 89.9 12 -1 30.2
17:55 1022 30.18 851 25.13 32.1 89.7 11 -1.4 29.5
18:00 1022 30.18 851 25.13 31.7 89.1 11 -1.7 29
18:05 1022 30.18 851 25.13 31.8 89.2 11 -1.7 28.9
18:10 1022 30.18 851 25.13 32 89.7 11 -2 28.5
18:15 1021 30.15 851 25.13 32.5 90.5 11 -1.7 28.9
18:20 1021 30.15 851 25.13 32.1 89.8 12 -0.7 30.8
18:25 1021 30.15 851 25.13 32.2 90 12 -0.6 30.8
18:30 1021 30.15 851 25.13 32 89.6 11 -1.3 29.6
18:35 1021 30.15 851 25.13 31.9 89.4 12 -1.1 30.1
18:40 1021 30.15 851 25.13 31.5 88.8 12 -1.1 30.1
18:45 1021 30.15 851 25.13 31.1 88 13 -0.1 31.7
18:50 1021 30.15 851 25.13 31.4 88.5 12 -1 30.2
18:55 1021 30.15 851 25.13 31.3 88.3 12 -0.7 30.8
19:00 1021 30.15 851 25.13 31 87.7 12 -0.9 30.3
19:05 1021 30.15 850 25.1 30.6 87.1 13 -0.9 30.4
19:10 1021 30.15 850 25.1 30.4 86.6 12 -1.4 29.5
19:15 1021 30.15 850 25.1 30.4 86.6 13 -0.5 31.1
19:20 1021 30.15 850 25.1 30.4 86.7 13 -0.5 31
19:25 1021 30.15 850 25.1 30.3 86.5 13 -0.4 31.4
19:30 1021 30.15 850 25.1 30.2 86.3 14 -0.4 31.4
19:35 1021 30.15 850 25.1 30.2 86.3 13 -0.8 30.5
19:40 1021 30.15 850 25.1 30.2 86.3 16 1.6 34.8
19:45 1021 30.15 851 25.13 29.4 84.8 22 5.8 42.5
19:50 1021 30.15 851 25.13 28.4 83.2 20 3.6 38.5
19:55 1021 30.15 851 25.13 28 82.5 20 3.1 37.6
20:00 1021 30.15 851 25.13 27.7 81.9 20 2.8 37
20:05 1021 30.15 851 25.13 27.6 81.6 20 2.8 37
20:10 1021 30.15 851 25.13 27.4 81.2 20 2.7 36.9
20:15 1021 30.15 851 25.13 27.2 80.9 20 2.4 36.4
20:20 1021 30.15 851 25.13 27.1 80.7 20 2.4 36.4
20:25 1021 30.15 851 25.13 27 80.6 20 2.6 36.6
20:30 1021 30.15 851 25.13 26.9 80.3 21 2.7 36.9
20:35 1021 30.15 850 25.1 26.8 80.3 21 2.7 36.9
20:40 1021 30.15 850 25.1 26.8 80.2 21 2.7 36.9
20:45 1021 30.15 850 25.1 26.7 80 21 2.8 37.1
20:50 1021 30.15 851 25.13 26.6 79.8 21 3 37.3
20:55 1021 30.15 851 25.13 26.3 79.4 22 3.4 38.1
21:00 1021 30.15 851 25.13 26 78.9 22 3.3 37.9
21:05 1021 30.15 851 25.13 26 78.7 23 3.3 37.9
21:10 1021 30.15 851 25.13 25.9 78.7 23 3.4 38.1
21:15 1021 30.15 851 25.13 25.9 78.6 23 3.4 38.1
21:20 1021 30.15 851 25.13 25.8 78.5 23 3.4 38.1
21:25 1021 30.15 851 25.13 25.8 78.4 23 3.2 37.8
21:30 1021 30.15 851 25.13 25.9 78.6 22 3 37.4
21:35 1021 30.15 851 25.13 25.9 78.7 22 2.8 37.1
21:40 1021 30.15 851 25.13 25.9 78.6 22 2.8 37
21:45 1021 30.15 851 25.13 25.9 78.6 22 3 37.4
21:50 1022 30.18 851 25.13 25.7 78.3 22 3 37.4
21:55 1022 30.18 851 25.13 25.6 78.1 22 2.9 37.2
22:00 1022 30.18 851 25.13 25.5 78 23 2.9 37.2
22:05 1022 30.18 851 25.13 25.5 77.9 23 2.8 37.1
22:10 1022 30.18 851 25.13 25.4 77.7 23 2.9 37.3
22:15 1022 30.18 851 25.13 25.3 77.5 23 3.1 37.6
22:20 1022 30.18 851 25.13 25.1 77.2 24 3.1 37.7
22:25 1022 30.18 851 25.13 25 77 24 3 37.4
22:30 1022 30.18 851 25.13 24.9 76.9 24 3.2 37.8
22:35 1022 30.18 851 25.13 24.9 76.8 24 3.2 37.8
22:40 1022 30.18 851 25.13 24.8 76.6 24 3.2 37.8
22:45 1022 30.18 851 25.13 24.8 76.7 24 3 37.4
22:50 1022 30.18 851 25.13 24.8 76.6 24 3.1 37.7
22:55 1022 30.18 851 25.13 24.6 76.3 24 3.2 37.8
23:00 1021 30.15 851 25.13 24.5 76.2 24 3 37.4
23:05 1022 30.18 851 25.13 24.6 76.2 24 3.1 37.7
23:10 1022 30.18 851 25.13 24.5 76.1 24 3.1 37.6
23:15 1022 30.18 851 25.13 24.4 75.9 24 2.9 37.2
23:20 1022 30.18 851 25.13 24.4 76 24 2.6 36.7
23:25 1022 30.18 851 25.13 24.5 76.1 23 2.5 36.6
23:30 1021 30.15 851 25.13 24.6 76.3 23 2.5 36.4
23:35 1022 30.18 851 25.13 24.6 76.3 23 2.5 36.5
23:40 1022 30.18 851 25.13 24.5 76.1 23 2.4 36.4
23:45 1021 30.15 851 25.13 24.4 75.9 23 2.2 35.9
23:50 1021 30.15 851 25.13 24.4 75.9 23 2.2 35.9
23:55 1021 30.15 851 25.13 24.3 75.7 23 2.1 35.7
24:00 1021 30.15 851 25.13 24.2 75.5 23 2 35.5